Aérodrome :
LOGIN :

S'inscrire | Disclaimer

   EN    FR    IT 

 










Légende :    VFR   VFR Marginal   IFR   IFR Intensif   IFR Très Intensif
Visi : 
Plafond : 
>= 8 km
>= 3000ft
5 à 8 km
1000 à 3000 ft
1500m à 5 km
500 à 1000 ft
800 à 1500m
200 à 500 ft
< 800m
< 200 ft
Symboles :   Orages  Brouillard  Fortes neiges  Fortes précipitations  Vent > 20 kt
SIGMETs :   Divers  Orages  Givrage  Turbulence  Onde Orograph.  Cendres Volcan.







- Altitude de l'aérodrome : 412 ft
- Code IATA : ORE
- Voir les cartes d'approche


LFOJ - Orleans

DERNIER METAR :
  • 142200Z AUTO 08003KT 0550 0450 R25/0550N FG NSC 08/08 Q1022

METARs EXPIRÉS :
  • 142130Z AUTO 12003KT 2000 0500 R25/0600D BCFG NSC 08/08 Q1022
  • 142100Z AUTO VRB03KT 4700 BR NSC 09/09 Q1022
  • 142030Z AUTO 13004KT 5000 2200 -RA BR NSC 09/09 Q1022
  • 142000Z AUTO 14005KT 6000 -RA NSC 09/08 Q1022
  • 141930Z AUTO 14005KT 5000 -RA BR NSC 10/09 Q1022

TAF TAF LFOJ
Valide du 14 à 15h jusqu'au 15 à 15h UTC


141400Z 1415/1515 13005KT CAVOK
BECMG 1420/1422 3000 BR BKN005
PROB40
TEMPO 1501/1505 0700 FG VV///
Pas de NOTAMs connus pour ce terrain.



MET'MAP, la Météo Aéronautique d'un coup d'oeil ! - Copyright ORBIFLY Décembre 2007 - Disclaimer

ORBIFLY MET'MAP TEAM :

Programmation & Développement : Alexandra Zaïnal
Conception & Développement : Baudouin d'Aumeries
Co-Programmation & Développement : Marc-Olivier Méhu
Soutien technique & logistique : Manuel Goepfert

Contact : metmap@orbifly.com




SOURCES & CREDITS :

   NOAA